createdAt,value
2022-12-15T00:02:35.881Z,1.50
2022-12-15T00:05:22.574Z,1.40
2022-12-15T00:08:08.543Z,1.30
2022-12-15T00:10:54.527Z,1.30
2022-12-15T00:13:40.687Z,1.30
2022-12-15T00:16:26.576Z,1.20
2022-12-15T00:19:12.516Z,1.20
2022-12-15T00:21:58.255Z,1.10
2022-12-15T00:24:44.080Z,1.10
2022-12-15T00:27:30.034Z,1.00
2022-12-15T00:30:15.928Z,1.00
2022-12-15T00:33:01.991Z,1.00
2022-12-15T00:35:47.938Z,0.90
2022-12-15T00:38:34.053Z,0.90
2022-12-15T00:41:01.809Z,0.90
2022-12-15T00:43:30.686Z,0.90
2022-12-15T00:46:23.276Z,0.90
2022-12-15T00:48:50.722Z,0.90
2022-12-15T00:51:18.457Z,1.00
2022-12-15T00:54:04.995Z,0.90
2022-12-15T00:56:51.203Z,0.90
2022-12-15T00:59:37.277Z,1.00
2022-12-15T01:02:23.014Z,1.00
2022-12-15T01:05:08.706Z,1.00
2022-12-15T01:07:54.663Z,1.00
2022-12-15T01:10:40.684Z,1.00
2022-12-15T01:13:31.905Z,0.90
2022-12-15T01:16:17.856Z,0.90
2022-12-15T01:19:03.722Z,0.80
2022-12-15T01:21:31.823Z,0.80
2022-12-15T01:23:59.014Z,0.80
2022-12-15T01:26:26.212Z,0.80
2022-12-15T01:28:53.367Z,0.80
2022-12-15T01:31:20.606Z,0.80
2022-12-15T01:33:47.868Z,0.80
2022-12-15T01:36:15.056Z,0.80
2022-12-15T01:38:42.862Z,0.80
2022-12-15T01:41:16.654Z,0.80
2022-12-15T01:43:43.838Z,0.80
2022-12-15T01:46:17.658Z,0.80
2022-12-15T01:48:44.891Z,0.80
2022-12-15T01:51:16.842Z,0.80
2022-12-15T01:53:51.173Z,0.80
2022-12-15T01:56:20.930Z,0.80
2022-12-15T01:58:50.167Z,0.80
2022-12-15T02:01:18.062Z,0.70
2022-12-15T02:03:47.612Z,0.80
2022-12-15T02:06:19.196Z,0.80
2022-12-15T02:08:47.887Z,0.70
2022-12-15T02:11:33.459Z,0.80
2022-12-15T02:14:03.630Z,0.80
2022-12-15T02:16:59.873Z,0.80
2022-12-15T02:19:51.870Z,0.70
2022-12-15T02:22:51.523Z,0.80
2022-12-15T02:25:50.648Z,0.80
2022-12-15T02:28:36.672Z,0.70
2022-12-15T02:31:32.136Z,0.70
2022-12-15T02:34:21.643Z,0.70
2022-12-15T02:36:54.211Z,0.70
2022-12-15T02:39:23.067Z,0.70
2022-12-15T02:41:52.871Z,0.70
2022-12-15T02:44:27.069Z,0.70
2022-12-15T02:47:09.924Z,0.70
2022-12-15T02:49:49.948Z,0.70
2022-12-15T02:52:27.765Z,0.70
2022-12-15T02:55:20.731Z,0.70
2022-12-15T02:57:55.886Z,0.70
2022-12-15T03:00:23.048Z,0.70
2022-12-15T03:02:55.322Z,0.70
2022-12-15T03:05:25.022Z,0.70
2022-12-15T03:07:54.276Z,0.60
2022-12-15T03:10:24.466Z,0.60
2022-12-15T03:12:52.531Z,0.60
2022-12-15T03:15:20.191Z,0.60
2022-12-15T03:17:47.508Z,0.60
2022-12-15T03:20:14.784Z,0.60
2022-12-15T03:22:41.950Z,0.60
2022-12-15T03:25:09.251Z,0.60
2022-12-15T03:27:37.732Z,0.60
2022-12-15T03:30:05.887Z,0.60
2022-12-15T03:32:33.087Z,0.50
2022-12-15T03:35:00.996Z,0.40
2022-12-15T03:37:28.572Z,0.40
2022-12-15T03:39:56.240Z,0.30
2022-12-15T03:42:42.116Z,0.30
2022-12-15T03:45:09.575Z,0.30
2022-12-15T03:47:41.739Z,0.30
2022-12-15T03:50:09.656Z,0.30
2022-12-15T03:52:37.113Z,0.30
2022-12-15T03:55:05.245Z,0.30
2022-12-15T03:57:32.435Z,0.30
2022-12-15T04:00:00.145Z,0.30
2022-12-15T04:02:27.552Z,0.30
2022-12-15T04:04:54.902Z,0.20
2022-12-15T04:07:22.054Z,0.30
2022-12-15T04:09:49.212Z,0.20
2022-12-15T04:12:16.385Z,0.20
2022-12-15T04:14:43.534Z,0.10
2022-12-15T04:17:11.263Z,0.00
2022-12-15T04:19:57.251Z,0.00
2022-12-15T04:22:24.656Z,-0.10
2022-12-15T04:25:10.555Z,0.00
2022-12-15T04:28:01.342Z,0.00
2022-12-15T04:30:50.010Z,0.00
2022-12-15T04:33:36.461Z,0.10
2022-12-15T04:36:23.050Z,0.00
2022-12-15T04:39:09.090Z,0.00
2022-12-15T04:41:55.127Z,0.10
2022-12-15T04:44:41.113Z,0.10
2022-12-15T04:47:27.144Z,0.10
2022-12-15T04:50:13.091Z,0.10
2022-12-15T04:52:58.935Z,0.10
2022-12-15T04:55:44.920Z,0.10
2022-12-15T04:58:30.820Z,0.10
2022-12-15T05:01:16.889Z,0.20
2022-12-15T05:04:02.899Z,0.20
2022-12-15T05:06:48.719Z,0.20
2022-12-15T05:09:34.762Z,0.10
2022-12-15T05:12:20.667Z,0.10
2022-12-15T05:15:06.542Z,0.20
2022-12-15T05:17:52.434Z,0.20
2022-12-15T05:20:38.279Z,0.20
2022-12-15T05:23:24.160Z,0.20
2022-12-15T05:26:10.104Z,0.10
2022-12-15T05:28:56.034Z,0.10
2022-12-15T05:31:41.806Z,0.10
2022-12-15T05:34:09.181Z,0.10
2022-12-15T05:36:36.334Z,0.10
2022-12-15T05:39:04.006Z,0.10
2022-12-15T05:41:31.195Z,0.00
2022-12-15T05:43:58.370Z,0.00
2022-12-15T05:46:25.819Z,0.00
2022-12-15T05:48:53.067Z,0.00
2022-12-15T05:51:20.463Z,0.00
2022-12-15T05:53:47.711Z,0.00
2022-12-15T05:56:16.035Z,0.00
2022-12-15T05:58:45.374Z,0.00
2022-12-15T06:01:15.847Z,0.00
2022-12-15T06:03:43.338Z,0.00
2022-12-15T06:06:12.359Z,0.00
2022-12-15T06:08:41.829Z,0.00
2022-12-15T06:11:12.700Z,0.00
2022-12-15T06:13:40.510Z,0.00
2022-12-15T06:16:12.066Z,0.00
2022-12-15T06:18:41.830Z,0.00
2022-12-15T06:21:15.826Z,0.00
2022-12-15T06:23:43.279Z,0.00
2022-12-15T06:26:15.753Z,0.00
2022-12-15T06:28:43.111Z,0.00
2022-12-15T06:31:12.013Z,0.00
2022-12-15T06:33:39.559Z,0.00
2022-12-15T06:36:09.781Z,0.00
2022-12-15T06:38:37.341Z,0.10
2022-12-15T06:41:06.511Z,0.10
2022-12-15T06:43:34.842Z,0.00
2022-12-15T06:46:02.969Z,0.00
2022-12-15T06:48:30.785Z,0.00
2022-12-15T06:51:07.978Z,0.00
2022-12-15T06:53:38.918Z,0.00
2022-12-15T06:56:08.580Z,0.00
2022-12-15T06:58:35.723Z,0.00
2022-12-15T07:01:08.978Z,0.00
2022-12-15T07:03:36.875Z,0.00
2022-12-15T07:06:07.625Z,0.00
2022-12-15T07:08:41.115Z,0.00
2022-12-15T07:11:11.503Z,-0.10
2022-12-15T07:13:39.753Z,-0.10
2022-12-15T07:16:07.808Z,-0.10
2022-12-15T07:18:35.110Z,-0.10
2022-12-15T07:21:04.377Z,0.00
2022-12-15T07:23:52.823Z,0.00
2022-12-15T07:26:19.219Z,-0.10
2022-12-15T07:28:46.390Z,-0.20
2022-12-15T07:31:13.622Z,-0.20
2022-12-15T07:33:40.822Z,-0.20
2022-12-15T07:36:08.493Z,-0.20
2022-12-15T07:38:35.831Z,-0.10
2022-12-15T07:41:07.746Z,-0.10
2022-12-15T07:43:36.003Z,-0.10
2022-12-15T07:46:05.017Z,-0.10
2022-12-15T07:48:33.238Z,-0.10
2022-12-15T07:51:10.978Z,-0.10
2022-12-15T07:53:40.042Z,-0.10
2022-12-15T07:56:09.322Z,0.00
2022-12-15T07:58:37.980Z,0.10
2022-12-15T08:01:07.910Z,0.20
2022-12-15T08:03:36.684Z,0.20
2022-12-15T08:06:05.592Z,0.30
2022-12-15T08:08:34.098Z,0.40
2022-12-15T08:11:10.003Z,0.40
2022-12-15T08:16:25.820Z,0.50
2022-12-15T08:18:53.723Z,0.40
2022-12-15T08:21:20.949Z,0.50
2022-12-15T08:23:48.262Z,0.50
2022-12-15T08:26:17.932Z,0.50
2022-12-15T08:28:45.707Z,0.50
2022-12-15T08:31:19.488Z,0.50
2022-12-15T08:33:47.164Z,0.60
2022-12-15T08:36:17.691Z,0.60
2022-12-15T08:38:45.933Z,0.70
2022-12-15T08:41:21.130Z,0.70
2022-12-15T08:43:49.643Z,0.70
2022-12-15T08:46:19.943Z,0.80
2022-12-15T08:48:47.587Z,0.90
2022-12-15T08:51:15.922Z,0.90
2022-12-15T08:53:43.556Z,1.00
2022-12-15T08:56:13.447Z,1.00
2022-12-15T08:58:40.832Z,1.00
2022-12-15T09:01:22.997Z,1.00
2022-12-15T09:03:55.803Z,1.10
2022-12-15T09:06:24.594Z,1.10
2022-12-15T09:08:56.392Z,1.10
2022-12-15T09:11:25.150Z,1.10
2022-12-15T09:13:52.419Z,1.10
2022-12-15T09:16:21.222Z,1.10
2022-12-15T09:18:51.642Z,1.10
2022-12-15T09:21:23.798Z,1.10
2022-12-15T09:23:52.261Z,1.10
2022-12-15T09:26:21.850Z,1.10
2022-12-15T09:28:51.051Z,1.10
2022-12-15T09:31:28.507Z,1.20
2022-12-15T09:33:58.024Z,1.20
2022-12-15T09:36:26.377Z,1.20
2022-12-15T09:38:53.707Z,1.10
2022-12-15T09:41:27.135Z,1.20
2022-12-15T09:44:03.175Z,1.20
2022-12-15T09:46:51.627Z,1.20
2022-12-15T09:49:44.149Z,1.30
2022-12-15T09:52:17.997Z,1.40
2022-12-15T09:54:46.214Z,1.40
2022-12-15T09:57:31.865Z,1.50
2022-12-15T10:00:09.994Z,1.50
2022-12-15T10:03:04.703Z,1.50
2022-12-15T10:06:15.455Z,1.50
2022-12-15T10:08:59.951Z,1.50
2022-12-15T10:11:48.532Z,1.50
2022-12-15T10:14:41.305Z,1.50
2022-12-15T10:17:26.043Z,1.50
2022-12-15T10:20:26.255Z,1.60
2022-12-15T10:22:56.855Z,1.60
2022-12-15T10:25:30.399Z,1.60
2022-12-15T10:28:35.889Z,1.70
2022-12-15T10:31:25.645Z,1.70
2022-12-15T10:33:59.811Z,1.70
2022-12-15T10:36:27.289Z,1.70
2022-12-15T10:38:54.667Z,1.70
2022-12-15T10:41:28.479Z,1.70
2022-12-15T10:43:57.329Z,1.70
2022-12-15T10:46:27.293Z,1.80
2022-12-15T10:48:57.274Z,1.80
2022-12-15T10:51:31.425Z,1.80
2022-12-15T10:54:10.597Z,1.80
2022-12-15T10:56:50.255Z,1.90
2022-12-15T10:59:25.469Z,1.90
2022-12-15T11:01:53.060Z,2.00
2022-12-15T11:04:33.790Z,2.10
2022-12-15T11:07:04.175Z,2.10
2022-12-15T11:09:39.297Z,2.10
2022-12-15T11:12:39.684Z,2.00
2022-12-15T11:15:21.910Z,2.00
2022-12-15T11:18:21.131Z,1.90
2022-12-15T11:21:00.679Z,1.90
2022-12-15T11:23:37.515Z,1.90
2022-12-15T11:26:14.131Z,1.90
2022-12-15T11:28:58.962Z,1.90
2022-12-15T11:31:38.252Z,1.90
2022-12-15T11:34:12.905Z,2.00
2022-12-15T11:36:58.972Z,1.90
2022-12-15T11:39:38.124Z,2.00
2022-12-15T11:42:30.662Z,1.90
2022-12-15T11:45:23.716Z,2.00
2022-12-15T11:47:59.484Z,2.10
2022-12-15T11:50:32.221Z,2.00
2022-12-15T11:53:41.930Z,2.10
2022-12-15T11:56:33.771Z,2.10
2022-12-15T11:59:00.907Z,2.20
2022-12-15T12:02:00.765Z,2.10
2022-12-15T12:05:02.907Z,2.10
2022-12-15T12:07:49.109Z,2.10
2022-12-15T12:10:47.687Z,2.00
2022-12-15T12:13:33.795Z,1.90
2022-12-15T12:16:28.849Z,1.90
2022-12-15T12:19:04.454Z,1.80
2022-12-15T12:21:36.850Z,1.80
2022-12-15T12:24:23.546Z,1.80
2022-12-15T12:27:00.635Z,1.70
2022-12-15T12:29:36.460Z,1.60
2022-12-15T12:32:13.014Z,1.60
2022-12-15T12:35:30.627Z,1.60
2022-12-15T12:38:04.723Z,1.60
2022-12-15T12:40:41.124Z,1.60
2022-12-15T12:43:14.211Z,1.50
2022-12-15T12:45:50.512Z,1.50
2022-12-15T12:48:29.672Z,1.50
2022-12-15T12:51:23.783Z,1.40
2022-12-15T12:53:51.371Z,1.40
2022-12-15T12:56:43.529Z,1.50
2022-12-15T12:59:28.840Z,1.50
2022-12-15T13:02:21.736Z,1.60
2022-12-15T13:05:00.400Z,1.60
2022-12-15T13:07:32.923Z,1.60
2022-12-15T13:10:09.887Z,1.60
2022-12-15T13:12:51.871Z,1.60
2022-12-15T13:15:25.020Z,1.60
2022-12-15T13:17:56.942Z,1.50
2022-12-15T13:20:26.941Z,1.50
2022-12-15T13:22:55.268Z,1.50
2022-12-15T13:25:38.289Z,1.40
2022-12-15T13:28:20.351Z,1.40
2022-12-15T13:31:18.920Z,1.30
2022-12-15T13:33:49.179Z,1.30
2022-12-15T13:36:41.621Z,1.20
2022-12-15T13:39:14.406Z,1.10
2022-12-15T13:44:57.241Z,0.80
2022-12-15T13:47:29.915Z,0.70
2022-12-15T13:50:03.051Z,0.70
2022-12-15T13:53:17.812Z,0.60
2022-12-15T13:55:46.148Z,0.50
2022-12-15T13:58:20.650Z,0.40
2022-12-15T14:00:54.183Z,0.40
2022-12-15T14:03:21.836Z,0.40
2022-12-15T14:05:55.554Z,0.50
2022-12-15T14:08:25.750Z,0.50
2022-12-15T14:10:55.440Z,0.60
2022-12-15T14:13:40.620Z,0.60
2022-12-15T14:16:19.190Z,0.60
2022-12-15T14:19:05.055Z,0.60
2022-12-15T14:21:32.305Z,0.60
2022-12-15T14:26:47.968Z,0.60
2022-12-15T14:29:17.774Z,0.50
2022-12-15T14:31:51.449Z,0.50
2022-12-15T14:34:32.859Z,0.50
2022-12-15T14:37:03.773Z,0.50
2022-12-15T14:39:44.919Z,0.40
2022-12-15T14:42:22.174Z,0.50
2022-12-15T14:44:51.327Z,0.40
2022-12-15T14:47:21.437Z,0.40
2022-12-15T14:49:49.024Z,0.40
2022-12-15T14:52:29.691Z,0.40
2022-12-15T14:55:00.209Z,0.40
2022-12-15T14:57:45.535Z,0.30
2022-12-15T15:00:32.081Z,0.30
2022-12-15T15:03:18.273Z,0.30
2022-12-15T15:05:51.422Z,0.30
2022-12-15T15:08:34.681Z,0.30
2022-12-15T15:11:19.415Z,0.30
2022-12-15T15:13:47.030Z,0.30
2022-12-15T15:16:17.257Z,0.30
2022-12-15T15:18:48.600Z,0.30
2022-12-15T15:21:20.831Z,0.30
2022-12-15T15:24:09.699Z,0.30
2022-12-15T15:26:38.021Z,0.40
2022-12-15T15:29:30.839Z,0.40
2022-12-15T15:32:19.188Z,0.40
2022-12-15T15:34:47.248Z,0.40
2022-12-15T15:37:25.062Z,0.40
2022-12-15T15:39:54.328Z,0.40
2022-12-15T15:42:25.475Z,0.40
2022-12-15T15:44:57.574Z,0.40
2022-12-15T15:47:25.947Z,0.40
2022-12-15T15:49:55.478Z,0.50
2022-12-15T15:52:23.250Z,0.40
2022-12-15T15:54:51.705Z,0.30
2022-12-15T15:57:19.046Z,0.40
2022-12-15T15:59:46.909Z,0.40
2022-12-15T16:02:14.993Z,0.40
2022-12-15T16:04:43.724Z,0.40
2022-12-15T16:07:28.585Z,0.40
2022-12-15T16:09:56.738Z,0.30
2022-12-15T16:12:35.901Z,0.30
2022-12-15T16:15:06.043Z,0.20
2022-12-15T16:17:33.346Z,0.20
2022-12-15T16:20:00.505Z,0.20
2022-12-15T16:22:27.866Z,0.20
2022-12-15T16:24:56.303Z,0.20
2022-12-15T16:27:23.509Z,0.30
2022-12-15T16:29:50.661Z,0.30
2022-12-15T16:32:17.883Z,0.30
2022-12-15T16:34:45.055Z,0.40
2022-12-15T16:37:39.202Z,0.40
2022-12-15T16:40:30.034Z,0.30
2022-12-15T16:43:01.778Z,0.30
2022-12-15T16:45:31.133Z,0.30
2022-12-15T16:47:58.478Z,0.30
2022-12-15T16:50:31.450Z,0.30
2022-12-15T16:52:59.219Z,0.20
2022-12-15T16:55:35.075Z,0.20
2022-12-15T16:58:06.791Z,0.20
2022-12-15T17:00:35.612Z,0.20
2022-12-15T17:03:03.379Z,0.30
2022-12-15T17:05:36.101Z,0.30
2022-12-15T17:08:07.004Z,0.30
2022-12-15T17:10:34.327Z,0.30
2022-12-15T17:13:39.132Z,0.30
2022-12-15T17:16:13.473Z,0.30
2022-12-15T17:18:40.787Z,0.30
2022-12-15T17:21:18.524Z,0.20
2022-12-15T17:23:49.317Z,0.20
2022-12-15T17:26:29.092Z,0.20
2022-12-15T17:29:00.996Z,0.20
2022-12-15T17:31:34.771Z,0.20
2022-12-15T17:34:30.535Z,0.30
2022-12-15T17:36:59.695Z,0.20
2022-12-15T17:39:28.023Z,0.20
2022-12-15T17:42:00.479Z,0.20
2022-12-15T17:44:37.966Z,0.20
2022-12-15T17:47:08.128Z,0.30
2022-12-15T17:49:38.308Z,0.30
2022-12-15T17:52:14.634Z,0.30
2022-12-15T17:54:41.885Z,0.30
2022-12-15T17:57:12.250Z,0.30
2022-12-15T17:59:39.402Z,0.30
2022-12-15T18:02:08.401Z,0.40
2022-12-15T18:04:35.765Z,0.40
2022-12-15T18:07:02.986Z,0.30
2022-12-15T18:09:30.424Z,0.30
2022-12-15T18:11:57.873Z,0.30
2022-12-15T18:14:25.174Z,0.30
2022-12-15T18:16:52.520Z,0.20
2022-12-15T18:19:20.130Z,0.20
2022-12-15T18:21:47.403Z,0.20
2022-12-15T18:24:21.345Z,0.20
2022-12-15T18:26:48.885Z,0.20
2022-12-15T18:29:17.981Z,0.20
2022-12-15T18:31:49.283Z,0.20
2022-12-15T18:34:21.086Z,0.20
2022-12-15T18:36:48.714Z,0.20
2022-12-15T18:39:23.490Z,0.30
2022-12-15T18:41:52.403Z,0.30
2022-12-15T18:44:25.213Z,0.30
2022-12-15T18:46:55.140Z,0.30
2022-12-15T18:49:23.863Z,0.30
2022-12-15T18:51:51.091Z,0.30
2022-12-15T18:54:20.787Z,0.30
2022-12-15T18:56:48.703Z,0.40
2022-12-15T18:59:17.955Z,0.40
2022-12-15T19:01:49.251Z,0.40
2022-12-15T19:04:16.485Z,0.40
2022-12-15T19:06:44.871Z,0.40
2022-12-15T19:09:19.035Z,0.50
2022-12-15T19:12:06.818Z,0.40
2022-12-15T19:14:40.087Z,0.40
2022-12-15T19:17:29.304Z,0.40
2022-12-15T19:20:15.483Z,0.40
2022-12-15T19:22:44.180Z,0.50
2022-12-15T19:25:24.785Z,0.50
2022-12-15T19:27:59.171Z,0.50
2022-12-15T19:30:40.135Z,0.50
2022-12-15T19:33:10.590Z,0.60
2022-12-15T19:35:39.061Z,0.60
2022-12-15T19:38:07.332Z,0.60
2022-12-15T19:40:35.931Z,0.60
2022-12-15T19:43:04.219Z,0.70
2022-12-15T19:45:32.908Z,0.70
2022-12-15T19:48:00.344Z,0.70
2022-12-15T19:50:36.807Z,0.70
2022-12-15T19:53:24.113Z,0.70
2022-12-15T19:55:56.926Z,0.80
2022-12-15T19:58:35.878Z,0.80
2022-12-15T20:01:07.180Z,0.80
2022-12-15T20:03:35.803Z,0.80
2022-12-15T20:06:06.519Z,0.80
2022-12-15T20:08:35.596Z,0.90
2022-12-15T20:11:03.503Z,0.80
2022-12-15T20:13:31.146Z,0.80
2022-12-15T20:15:58.674Z,0.80
2022-12-15T20:18:25.840Z,0.80
2022-12-15T20:20:53.377Z,0.80
2022-12-15T20:23:29.282Z,0.80
2022-12-15T20:25:57.357Z,0.80
2022-12-15T20:28:29.714Z,0.90
2022-12-15T20:30:58.158Z,0.80
2022-12-15T20:33:25.456Z,0.90
2022-12-15T20:35:53.401Z,0.90
2022-12-15T20:38:32.364Z,0.90
2022-12-15T20:41:01.536Z,0.90
2022-12-15T20:43:31.685Z,0.90
2022-12-15T20:46:05.897Z,0.90
2022-12-15T20:48:35.070Z,0.90
2022-12-15T20:51:07.551Z,0.90
2022-12-15T20:53:37.726Z,0.90
2022-12-15T20:56:06.081Z,0.90
2022-12-15T20:58:40.892Z,0.90
2022-12-15T21:01:20.868Z,0.90
2022-12-15T21:03:50.424Z,0.90
2022-12-15T21:06:19.447Z,0.90
2022-12-15T21:08:46.739Z,0.90
2022-12-15T21:11:20.314Z,0.90
2022-12-15T21:13:49.192Z,1.00
2022-12-15T21:16:21.493Z,1.00
2022-12-15T21:21:40.690Z,1.00
2022-12-15T21:24:19.526Z,1.10
2022-12-15T21:26:46.951Z,1.10
2022-12-15T21:29:20.504Z,1.10
2022-12-15T21:31:48.339Z,1.10
2022-12-15T21:34:15.635Z,1.20
2022-12-15T21:36:45.430Z,1.20
2022-12-15T21:39:21.758Z,1.20
2022-12-15T21:41:49.077Z,1.20
2022-12-15T21:44:18.279Z,1.20
2022-12-15T21:46:45.656Z,1.30
2022-12-15T21:49:18.466Z,1.30
2022-12-15T21:51:49.466Z,1.40
2022-12-15T21:54:27.415Z,1.40
2022-12-15T21:57:01.191Z,1.40
2022-12-15T21:59:31.176Z,1.40
2022-12-15T22:02:00.816Z,1.40
2022-12-15T22:04:37.205Z,1.40
2022-12-15T22:07:06.257Z,1.50
2022-12-15T22:09:33.558Z,1.50
2022-12-15T22:12:01.222Z,1.50
2022-12-15T22:14:31.618Z,1.50
2022-12-15T22:17:00.106Z,1.50
2022-12-15T22:19:27.645Z,1.50
2022-12-15T22:21:54.835Z,1.40
2022-12-15T22:24:22.278Z,1.50
2022-12-15T22:26:49.590Z,1.50
2022-12-15T22:29:20.280Z,1.50
2022-12-15T22:31:49.438Z,1.60
2022-12-15T22:34:19.556Z,1.60
2022-12-15T22:36:46.983Z,1.60
2022-12-15T22:39:14.866Z,1.60
2022-12-15T22:41:45.113Z,1.60
2022-12-15T22:44:25.608Z,1.60
2022-12-15T22:46:55.680Z,1.60
2022-12-15T22:49:29.207Z,1.60
2022-12-15T22:51:56.422Z,1.60
2022-12-15T22:54:25.980Z,1.70
2022-12-15T22:57:03.828Z,1.70
2022-12-15T22:59:41.360Z,1.70
2022-12-15T23:02:09.079Z,1.70
2022-12-15T23:04:36.550Z,1.70
2022-12-15T23:07:07.350Z,1.70
2022-12-15T23:09:34.526Z,1.60
2022-12-15T23:12:01.824Z,1.60
2022-12-15T23:14:47.722Z,1.70
2022-12-15T23:17:14.894Z,1.70
2022-12-15T23:19:45.889Z,1.70
2022-12-15T23:22:13.717Z,1.60
2022-12-15T23:24:41.237Z,1.60
2022-12-15T23:27:11.991Z,1.60
2022-12-15T23:29:39.252Z,1.60
2022-12-15T23:32:06.430Z,1.60
2022-12-15T23:34:33.635Z,1.60
2022-12-15T23:37:00.826Z,1.60
2022-12-15T23:39:28.206Z,1.70
2022-12-15T23:41:55.424Z,1.70
2022-12-15T23:44:22.852Z,1.70
2022-12-15T23:46:50.044Z,1.70
2022-12-15T23:49:17.499Z,1.70
2022-12-15T23:51:44.670Z,1.70
2022-12-15T23:54:11.854Z,1.70
2022-12-15T23:56:40.113Z,1.70
2022-12-15T23:59:07.533Z,1.60
